Time;durP1;ratioP1;P1;durP2;ratioP2;P2;SDS_P1;SDS_P2;PMS_P1;PMS_P2;Temp;Humidity;BMP_temperature;BMP_pressure;BME280_temperature;BME280_humidity;BME280_pressure;Samples;Min_cycle;Max_cycle;Signal;HPM_P1;HPM_P2
2021/12/10 00:01:40;;;;;;;17.00;9.10;;;4.00;99.90;;;;;;5039954;28;21315;-47
2021/12/10 00:04:09;;;;;;;16.90;7.93;;;4.00;99.90;;;;;;5072617;28;20219;-46
2021/12/10 00:06:40;;;;;;;16.63;9.20;;;4.00;99.90;;;;;;5056928;28;20211;-47
2021/12/10 00:09:11;;;;;;;18.07;8.67;;;4.00;99.90;;;;;;5066149;28;20584;-47
2021/12/10 00:11:43;;;;;;;14.93;8.20;;;4.00;99.90;;;;;;5067776;28;20216;-47
2021/12/10 00:14:10;;;;;;;13.00;7.93;;;4.00;99.90;;;;;;5059976;28;20228;-46
2021/12/10 00:16:40;;;;;;;15.90;8.70;;;4.00;99.90;;;;;;5054426;28;20330;-47
2021/12/10 00:19:19;;;;;;;12.53;8.00;;;4.00;99.90;;;;;;5069412;28;20246;-47
2021/12/10 00:21:47;;;;;;;16.00;8.77;;;4.00;99.90;;;;;;5072326;28;20207;-47
2021/12/10 00:24:16;;;;;;;12.87;8.60;;;4.00;99.90;;;;;;5038005;28;20280;-47
2021/12/10 00:26:43;;;;;;;13.83;8.60;;;4.00;99.90;;;;;;5075598;28;20203;-46
2021/12/10 00:29:12;;;;;;;13.53;7.67;;;4.00;99.90;;;;;;5048825;28;20806;-46
2021/12/10 00:31:47;;;;;;;15.47;8.30;;;4.00;99.90;;;;;;5055600;28;20234;-46
2021/12/10 00:34:25;;;;;;;14.40;8.10;;;4.00;99.90;;;;;;5080198;28;20239;-47
2021/12/10 00:36:53;;;;;;;15.67;8.10;;;4.00;99.90;;;;;;5057914;28;20218;-47
2021/12/10 00:39:23;;;;;;;19.50;8.47;;;4.00;99.90;;;;;;5061205;28;20208;-46
2021/12/10 00:41:51;;;;;;;16.17;8.40;;;4.00;99.90;;;;;;5064797;28;20204;-47
2021/12/10 00:44:18;;;;;;;12.47;8.07;;;4.00;99.90;;;;;;5063867;28;20257;-47
2021/12/10 00:46:46;;;;;;;16.27;8.30;;;4.00;99.90;;;;;;5048890;28;20208;-47
2021/12/10 00:49:14;;;;;;;14.93;8.47;;;4.00;99.90;;;;;;5060285;28;20216;-47
2021/12/10 00:51:42;;;;;;;11.87;6.90;;;4.00;99.90;;;;;;5054026;28;20598;-47
2021/12/10 00:54:11;;;;;;;13.67;8.63;;;4.00;99.90;;;;;;5068575;28;20231;-47
2021/12/10 00:56:38;;;;;;;15.73;7.83;;;4.00;99.90;;;;;;5076622;28;20505;-46
2021/12/10 00:59:05;;;;;;;12.03;7.30;;;4.00;99.90;;;;;;5078551;28;20194;-46
2021/12/10 01:01:34;;;;;;;12.00;6.83;;;4.00;99.90;;;;;;5068899;28;20211;-47
2021/12/10 01:04:07;;;;;;;11.17;6.80;;;4.00;99.90;;;;;;5055586;28;20784;-47
2021/12/10 01:06:36;;;;;;;12.80;7.87;;;4.00;99.90;;;;;;5065989;28;20214;-45
2021/12/10 01:09:10;;;;;;;12.00;7.37;;;4.00;99.90;;;;;;5055489;28;20212;-46
2021/12/10 01:11:40;;;;;;;10.13;6.87;;;4.00;99.90;;;;;;5072362;28;20207;-47
2021/12/10 01:14:16;;;;;;;11.97;7.27;;;4.00;99.90;;;;;;5071977;28;20312;-47
2021/12/10 01:25:11;;;;;;;11.57;7.40;;;4.00;99.90;;;;;;5058259;28;20226;-46
2021/12/10 01:27:40;;;;;;;13.67;7.00;;;4.00;99.90;;;;;;5071965;28;20301;-46
2021/12/10 01:30:13;;;;;;;14.23;7.57;;;3.90;99.90;;;;;;5050086;28;20196;-47
2021/12/10 01:32:47;;;;;;;13.60;7.77;;;4.00;99.90;;;;;;5052522;28;20220;-47
2021/12/10 01:35:18;;;;;;;10.27;6.97;;;4.00;99.90;;;;;;5074954;28;20212;-47
2021/12/10 01:37:46;;;;;;;15.50;8.03;;;4.00;99.90;;;;;;5060656;28;20219;-47
2021/12/10 01:40:14;;;;;;;13.60;7.13;;;4.00;99.90;;;;;;5063976;28;20377;-46
2021/12/10 01:42:45;;;;;;;13.73;7.80;;;4.00;99.90;;;;;;5066314;28;20206;-46
2021/12/10 01:45:20;;;;;;;13.83;8.00;;;4.00;99.90;;;;;;5056157;28;21233;-47
2021/12/10 01:47:52;;;;;;;12.07;7.63;;;3.90;99.90;;;;;;5061535;28;20206;-47
2021/12/10 01:50:20;;;;;;;13.70;7.93;;;4.00;99.90;;;;;;5077013;28;20228;-47
2021/12/10 01:52:52;;;;;;;15.43;7.40;;;3.90;99.90;;;;;;5048681;28;20212;-46
2021/12/10 01:55:21;;;;;;;12.13;7.07;;;3.90;99.90;;;;;;5060773;28;20208;-47
2021/12/10 01:57:49;;;;;;;13.57;7.33;;;3.90;99.90;;;;;;5057016;28;20226;-47
2021/12/10 02:00:19;;;;;;;14.57;7.60;;;4.00;99.90;;;;;;5063952;28;20210;-47
2021/12/10 02:02:47;;;;;;;13.30;7.03;;;4.00;99.90;;;;;;5064388;28;20717;-47
2021/12/10 02:05:15;;;;;;;14.50;7.83;;;4.00;99.90;;;;;;5061073;28;20298;-47
2021/12/10 02:07:43;;;;;;;15.57;7.73;;;4.00;99.90;;;;;;5073595;28;20209;-46
2021/12/10 02:10:14;;;;;;;11.90;7.53;;;4.00;99.90;;;;;;5073386;28;20324;-47
2021/12/10 02:12:41;;;;;;;14.97;8.37;;;4.00;99.90;;;;;;5068244;28;20212;-46
2021/12/10 02:15:12;;;;;;;13.33;8.20;;;4.00;99.90;;;;;;5075535;28;20201;-47
2021/12/10 02:17:42;;;;;;;14.53;8.83;;;4.00;99.90;;;;;;5071963;28;20216;-46
2021/12/10 02:20:12;;;;;;;16.83;7.83;;;4.00;99.90;;;;;;5073763;28;21002;-47
2021/12/10 02:22:40;;;;;;;14.83;8.63;;;4.00;99.90;;;;;;5070597;27;20205;-46
2021/12/10 02:25:08;;;;;;;13.10;8.07;;;4.00;99.90;;;;;;5051928;28;20211;-46
2021/12/10 02:27:36;;;;;;;15.43;8.43;;;4.00;99.90;;;;;;5061917;27;20208;-46
2021/12/10 02:30:04;;;;;;;14.47;8.13;;;4.00;99.90;;;;;;5071475;28;20215;-47
2021/12/10 02:32:31;;;;;;;16.33;8.47;;;4.00;99.90;;;;;;5065275;28;20706;-47
2021/12/10 02:34:58;;;;;;;13.17;8.40;;;4.00;99.90;;;;;;5058679;28;20219;-47
2021/12/10 02:37:25;;;;;;;13.17;8.23;;;3.90;99.90;;;;;;5060179;28;20223;-47
2021/12/10 02:39:54;;;;;;;18.23;8.77;;;4.00;99.90;;;;;;5051529;28;20210;-46
2021/12/10 02:42:21;;;;;;;14.20;8.67;;;4.00;99.90;;;;;;5076259;28;20208;-46
2021/12/10 02:44:47;;;;;;;13.87;8.27;;;4.00;99.90;;;;;;5068584;28;20209;-47
2021/12/10 02:47:16;;;;;;;14.73;7.33;;;4.00;99.90;;;;;;5083136;28;20202;-46
2021/12/10 02:49:43;;;;;;;12.57;7.53;;;4.00;99.90;;;;;;5052415;28;20252;-46
2021/12/10 02:52:11;;;;;;;17.20;8.47;;;4.00;99.90;;;;;;5062530;28;20218;-47
2021/12/10 02:54:38;;;;;;;12.60;7.83;;;4.00;99.90;;;;;;5056220;27;20226;-47
2021/12/10 02:57:10;;;;;;;11.43;7.40;;;4.00;99.90;;;;;;5076128;27;20228;-46
2021/12/10 02:59:38;;;;;;;12.43;7.77;;;3.90;99.90;;;;;;5066445;28;20208;-47
2021/12/10 03:02:07;;;;;;;13.40;7.43;;;3.90;99.90;;;;;;5048228;28;20212;-47
2021/12/10 03:04:34;;;;;;;10.80;7.20;;;3.90;99.90;;;;;;5078650;28;20220;-47
2021/12/10 03:07:07;;;;;;;15.77;8.10;;;3.90;99.90;;;;;;5059002;28;20208;-46
2021/12/10 03:09:34;;;;;;;13.20;8.00;;;3.90;99.90;;;;;;5066001;28;20208;-46
2021/12/10 03:12:01;;;;;;;22.13;8.20;;;3.90;99.90;;;;;;5076752;28;20218;-47
2021/12/10 03:14:35;;;;;;;12.43;7.47;;;4.00;99.90;;;;;;5054825;28;20234;-47
2021/12/10 03:17:06;;;;;;;12.43;8.03;;;3.90;99.90;;;;;;5077323;28;21007;-47
2021/12/10 03:19:33;;;;;;;11.43;7.53;;;3.90;99.90;;;;;;5068804;28;20212;-47
2021/12/10 03:22:01;;;;;;;15.27;7.83;;;3.90;99.90;;;;;;5035798;28;20214;-47
2021/12/10 03:24:29;;;;;;;13.60;7.83;;;3.90;99.90;;;;;;5077554;28;20220;-47
2021/12/10 03:27:01;;;;;;;12.00;7.80;;;3.90;99.90;;;;;;5058213;28;20215;-46
2021/12/10 03:29:31;;;;;;;12.07;8.37;;;3.90;99.90;;;;;;5073307;28;20858;-47
2021/12/10 03:32:02;;;;;;;14.27;8.33;;;3.90;99.90;;;;;;5056571;28;20253;-47
2021/12/10 03:34:29;;;;;;;12.70;8.30;;;3.90;99.90;;;;;;5078112;28;20237;-47
2021/12/10 03:36:56;;;;;;;13.30;7.30;;;3.90;99.90;;;;;;5058428;28;20204;-46
2021/12/10 03:39:25;;;;;;;14.97;8.20;;;3.90;99.90;;;;;;5059629;28;20215;-47
2021/12/10 03:41:53;;;;;;;12.97;7.60;;;3.90;99.90;;;;;;5061128;28;20218;-46
2021/12/10 03:44:20;;;;;;;14.07;7.87;;;3.80;99.90;;;;;;5063472;28;20228;-47
2021/12/10 03:46:51;;;;;;;12.63;7.00;;;3.80;99.90;;;;;;5053926;28;20229;-46
2021/12/10 03:49:19;;;;;;;18.30;7.77;;;3.80;99.90;;;;;;5063953;28;20192;-47
2021/12/10 03:51:46;;;;;;;10.73;7.10;;;3.80;99.90;;;;;;5054365;28;20207;-46
2021/12/10 03:54:16;;;;;;;9.20;6.97;;;3.90;99.90;;;;;;5058573;28;20237;-46
2021/12/10 03:56:43;;;;;;;12.63;7.00;;;3.90;99.90;;;;;;5074084;28;20706;-46
2021/12/10 03:59:13;;;;;;;10.63;7.00;;;3.90;99.90;;;;;;5057793;28;20584;-47
2021/12/10 04:01:42;;;;;;;9.93;6.83;;;3.80;99.90;;;;;;5066181;28;20211;-47
2021/12/10 04:04:17;;;;;;;14.77;7.30;;;3.80;99.90;;;;;;5055547;28;20235;-46
2021/12/10 04:06:44;;;;;;;12.70;7.20;;;3.80;99.90;;;;;;5059395;28;20203;-47
2021/12/10 04:09:11;;;;;;;11.10;7.43;;;3.80;99.90;;;;;;5060466;28;20219;-47
2021/12/10 04:11:39;;;;;;;15.73;7.17;;;3.90;99.90;;;;;;5057308;28;20203;-47
2021/12/10 04:14:06;;;;;;;16.77;7.23;;;3.80;99.90;;;;;;5062228;28;20231;-47
2021/12/10 04:16:34;;;;;;;12.47;7.20;;;3.90;99.90;;;;;;5070473;28;20580;-46
2021/12/10 04:19:04;;;;;;;14.43;7.30;;;3.80;99.90;;;;;;5074983;28;20212;-47
2021/12/10 04:21:39;;;;;;;15.13;7.77;;;3.80;99.90;;;;;;5046753;28;20202;-46
2021/12/10 04:24:06;;;;;;;8.93;6.10;;;3.80;99.90;;;;;;5059917;28;20233;-47
2021/12/10 04:26:33;;;;;;;9.43;6.10;;;3.90;99.90;;;;;;5041455;28;20949;-47
2021/12/10 04:29:00;;;;;;;13.93;6.77;;;3.90;99.90;;;;;;5075268;28;20206;-47
2021/12/10 04:31:27;;;;;;;12.47;6.70;;;3.90;99.90;;;;;;5052436;28;20203;-47
2021/12/10 04:33:54;;;;;;;8.30;6.07;;;3.90;99.90;;;;;;5063803;28;21458;-47
2021/12/10 04:36:20;;;;;;;8.27;5.87;;;3.90;99.90;;;;;;5068212;28;20236;-46
2021/12/10 04:38:49;;;;;;;11.20;6.40;;;3.80;99.90;;;;;;5042854;28;20212;-46
2021/12/10 04:41:16;;;;;;;10.77;6.57;;;3.80;99.90;;;;;;5063895;28;20209;-47
2021/12/10 04:43:45;;;;;;;10.03;6.00;;;3.80;99.90;;;;;;5050476;28;20255;-47
2021/12/10 04:46:12;;;;;;;8.83;6.03;;;3.80;99.90;;;;;;5068158;28;20271;-46
2021/12/10 04:48:50;;;;;;;9.90;6.30;;;3.80;99.90;;;;;;5064567;28;20208;-47
2021/12/10 04:51:18;;;;;;;8.50;5.80;;;3.90;99.90;;;;;;5039016;28;20278;-47
2021/12/10 04:53:45;;;;;;;11.20;6.10;;;3.80;99.90;;;;;;5067599;28;20229;-46
2021/12/10 04:56:13;;;;;;;9.47;5.63;;;3.80;99.90;;;;;;5028335;28;20220;-47
2021/12/10 04:58:40;;;;;;;9.20;6.27;;;3.90;99.90;;;;;;5053393;28;20219;-46
2021/12/10 05:01:07;;;;;;;9.73;5.83;;;3.80;99.90;;;;;;5062503;28;20295;-46
2021/12/10 05:03:34;;;;;;;11.27;5.90;;;3.80;99.90;;;;;;5073203;28;20729;-47
2021/12/10 05:06:03;;;;;;;10.17;6.07;;;3.80;99.90;;;;;;5066397;28;20192;-47
2021/12/10 05:08:32;;;;;;;9.57;6.53;;;3.80;99.90;;;;;;5074378;28;20213;-47
2021/12/10 05:10:59;;;;;;;9.30;5.70;;;3.80;99.90;;;;;;5037887;28;21054;-45
2021/12/10 05:13:28;;;;;;;9.50;5.80;;;3.80;99.90;;;;;;5075455;28;20239;-47
2021/12/10 05:15:58;;;;;;;11.73;6.27;;;3.80;99.90;;;;;;5061758;28;20227;-47
2021/12/10 05:18:27;;;;;;;8.87;6.00;;;3.80;99.90;;;;;;5084917;28;20625;-47
2021/12/10 05:20:55;;;;;;;10.63;6.77;;;3.80;99.90;;;;;;5055913;28;20924;-40
2021/12/10 05:23:22;;;;;;;13.50;6.43;;;3.80;99.90;;;;;;5051243;28;20472;-40
2021/12/10 05:25:51;;;;;;;11.03;6.13;;;3.80;99.90;;;;;;5053800;28;20290;-40
2021/12/10 05:28:19;;;;;;;10.27;5.50;;;3.80;99.90;;;;;;5053020;28;20214;-40
2021/12/10 05:30:49;;;;;;;11.43;6.83;;;3.80;99.90;;;;;;5054472;28;20216;-41
2021/12/10 05:33:17;;;;;;;11.70;6.40;;;3.80;99.90;;;;;;5030135;28;21518;-41
2021/12/10 05:35:46;;;;;;;9.27;5.67;;;3.70;99.90;;;;;;5060212;28;20215;-41
2021/12/10 05:38:14;;;;;;;8.83;5.83;;;3.70;99.90;;;;;;5041506;28;21938;-40
2021/12/10 05:40:41;;;;;;;8.47;6.20;;;3.70;99.90;;;;;;5062894;28;20207;-41
2021/12/10 05:43:09;;;;;;;9.17;5.73;;;3.70;99.90;;;;;;5046057;28;20227;-40
2021/12/10 05:45:36;;;;;;;11.87;6.03;;;3.80;99.90;;;;;;5064140;28;20207;-40
2021/12/10 05:48:06;;;;;;;11.87;6.07;;;3.70;99.90;;;;;;5070962;28;20199;-41
2021/12/10 05:50:34;;;;;;;12.90;6.40;;;3.70;99.90;;;;;;5064097;28;20209;-40
2021/12/10 05:53:01;;;;;;;10.23;6.57;;;3.70;99.90;;;;;;5040367;28;20362;-45
2021/12/10 05:55:28;;;;;;;9.23;5.90;;;3.70;99.90;;;;;;5060637;28;20223;-47
2021/12/10 05:57:56;;;;;;;11.20;6.17;;;3.70;99.90;;;;;;5044491;28;20200;-45
2021/12/10 06:00:26;;;;;;;9.50;5.70;;;3.70;99.90;;;;;;5064913;28;20907;-46
2021/12/10 06:02:53;;;;;;;11.80;6.30;;;3.70;99.90;;;;;;5076443;28;20205;-47
2021/12/10 06:05:22;;;;;;;8.33;5.60;;;3.80;99.90;;;;;;5048479;28;20214;-48
2021/12/10 06:07:50;;;;;;;9.87;6.40;;;3.80;99.90;;;;;;5051601;28;20252;-47
2021/12/10 06:10:19;;;;;;;12.77;6.10;;;3.70;99.90;;;;;;5037618;28;20211;-46
2021/12/10 06:12:47;;;;;;;10.40;6.83;;;3.70;99.90;;;;;;5041006;28;20215;-47
2021/12/10 06:15:16;;;;;;;9.33;6.13;;;3.70;99.90;;;;;;5063851;28;20685;-47
2021/12/10 06:17:44;;;;;;;12.37;6.27;;;3.70;99.90;;;;;;5053570;28;23695;-46
2021/12/10 06:20:15;;;;;;;10.57;6.50;;;3.70;99.90;;;;;;5060343;28;20582;-47
2021/12/10 06:22:45;;;;;;;10.27;6.03;;;3.70;99.90;;;;;;5035710;28;20204;-46
2021/12/10 06:25:12;;;;;;;9.80;6.63;;;3.70;99.90;;;;;;5039852;28;20709;-46
2021/12/10 06:27:44;;;;;;;12.17;6.30;;;3.70;99.90;;;;;;5048154;28;20217;-46
2021/12/10 06:30:13;;;;;;;11.97;6.60;;;3.70;99.90;;;;;;5056804;28;20605;-46
2021/12/10 06:32:40;;;;;;;17.53;6.83;;;3.70;99.90;;;;;;5066643;28;20211;-46
2021/12/10 06:35:09;;;;;;;13.33;6.27;;;3.70;99.90;;;;;;5073133;28;20716;-46
2021/12/10 06:37:36;;;;;;;12.77;6.10;;;3.70;99.90;;;;;;5056102;28;20250;-46
2021/12/10 06:40:06;;;;;;;12.00;6.67;;;3.70;99.90;;;;;;5070931;28;20887;-46
2021/12/10 06:42:33;;;;;;;10.97;6.63;;;3.70;99.90;;;;;;5069020;27;20207;-46
2021/12/10 06:45:01;;;;;;;12.50;7.00;;;3.70;99.90;;;;;;5070496;28;20222;-46
2021/12/10 06:47:28;;;;;;;11.77;6.73;;;3.60;99.90;;;;;;5067616;28;20306;-47
2021/12/10 06:49:55;;;;;;;10.27;7.20;;;3.60;99.90;;;;;;5073592;28;20207;-46
2021/12/10 06:52:21;;;;;;;11.37;7.03;;;3.60;99.90;;;;;;5069968;28;20203;-46
2021/12/10 06:54:48;;;;;;;12.77;7.30;;;3.70;99.90;;;;;;5071359;28;20231;-45
2021/12/10 06:57:17;;;;;;;13.13;7.43;;;3.60;99.90;;;;;;5058530;28;20567;-46
2021/12/10 06:59:44;;;;;;;15.40;7.60;;;3.70;99.90;;;;;;5064537;28;20224;-47
2021/12/10 07:02:12;;;;;;;12.03;7.57;;;3.60;99.90;;;;;;5083340;27;20203;-46
2021/12/10 07:04:41;;;;;;;11.20;7.13;;;3.60;99.90;;;;;;5056097;28;20491;-46
2021/12/10 07:07:08;;;;;;;14.83;6.53;;;3.70;99.90;;;;;;5078250;28;20203;-45
2021/12/10 07:09:36;;;;;;;17.93;8.37;;;4.10;99.90;;;;;;5063528;28;20211;-46
2021/12/10 07:12:07;;;;;;;12.60;7.47;;;4.40;99.90;;;;;;5080652;28;20210;-46
2021/12/10 07:14:36;;;;;;;14.47;7.30;;;4.30;99.90;;;;;;5050565;28;20721;-46
2021/12/10 07:17:04;;;;;;;11.40;7.17;;;4.20;99.90;;;;;;5061376;28;20216;-46
2021/12/10 07:19:31;;;;;;;12.40;6.80;;;4.00;99.90;;;;;;5079968;28;20199;-45
2021/12/10 07:21:58;;;;;;;9.83;6.63;;;4.00;99.90;;;;;;5087267;28;20214;-46
2021/12/10 07:24:25;;;;;;;13.47;6.83;;;3.90;99.90;;;;;;5073884;28;20229;-45
2021/12/10 07:26:52;;;;;;;14.40;6.83;;;3.80;99.90;;;;;;5079142;28;20203;-45
2021/12/10 07:29:21;;;;;;;11.83;6.67;;;3.80;99.90;;;;;;5081344;28;20452;-46
2021/12/10 07:31:49;;;;;;;9.77;6.43;;;3.80;99.90;;;;;;5064192;28;20298;-46
2021/12/10 07:34:17;;;;;;;15.80;7.93;;;3.70;99.90;;;;;;5078412;28;20220;-45
2021/12/10 07:36:43;;;;;;;10.67;7.27;;;3.70;99.90;;;;;;5061682;28;20727;-45
2021/12/10 07:39:11;;;;;;;11.03;7.40;;;3.70;99.90;;;;;;5070401;28;20219;-46
2021/12/10 07:41:41;;;;;;;12.07;6.87;;;3.80;99.90;;;;;;5062352;28;20227;-47
2021/12/10 07:44:08;;;;;;;9.87;7.17;;;3.70;99.90;;;;;;5049853;27;20231;-45
2021/12/10 07:46:35;;;;;;;11.43;6.33;;;3.70;99.90;;;;;;5043071;28;20212;-46
2021/12/10 07:49:06;;;;;;;12.17;6.80;;;3.60;99.90;;;;;;5050063;28;20469;-47
2021/12/10 07:51:33;;;;;;;10.67;6.50;;;3.70;99.90;;;;;;5071909;28;20303;-47
2021/12/10 07:54:01;;;;;;;9.40;6.43;;;3.60;99.90;;;;;;5053758;28;20238;-46
2021/12/10 07:56:30;;;;;;;9.13;5.50;;;3.60;99.90;;;;;;5058513;28;20301;-45
2021/12/10 07:58:58;;;;;;;8.37;5.80;;;3.60;99.90;;;;;;5060205;28;20233;-46
2021/12/10 08:01:27;;;;;;;10.43;5.43;;;3.60;99.90;;;;;;5055218;28;20208;-46
2021/12/10 08:03:56;;;;;;;10.40;6.23;;;3.60;99.90;;;;;;5049821;28;20368;-46
2021/12/10 08:06:26;;;;;;;8.10;5.67;;;3.60;99.90;;;;;;5083713;27;20292;-46
2021/12/10 08:08:53;;;;;;;9.00;6.20;;;3.60;99.90;;;;;;5044824;28;20224;-45
2021/12/10 08:11:21;;;;;;;10.13;6.57;;;3.70;99.90;;;;;;5047878;28;20215;-46
2021/12/10 08:13:49;;;;;;;9.27;6.20;;;3.60;99.90;;;;;;5057616;28;20220;-46
2021/12/10 08:16:16;;;;;;;11.20;6.83;;;3.70;99.90;;;;;;5033951;28;20224;-46
2021/12/10 08:18:45;;;;;;;10.00;6.07;;;3.60;99.90;;;;;;5058056;28;21060;-46
2021/12/10 08:21:12;;;;;;;11.80;6.43;;;3.60;99.90;;;;;;5056951;28;20332;-46
2021/12/10 08:23:41;;;;;;;10.50;6.80;;;3.50;99.90;;;;;;5052426;28;20609;-46
2021/12/10 08:26:09;;;;;;;12.93;7.03;;;3.50;99.90;;;;;;5065902;28;20207;-45
2021/12/10 08:28:37;;;;;;;16.73;7.57;;;3.40;99.90;;;;;;5044600;28;20216;-46
2021/12/10 08:31:05;;;;;;;15.40;8.33;;;3.50;99.90;;;;;;5061333;28;20222;-46
2021/12/10 08:33:32;;;;;;;12.30;7.47;;;3.40;99.90;;;;;;5041673;28;20224;-41
2021/12/10 08:36:04;;;;;;;14.67;8.23;;;3.40;99.90;;;;;;5047008;28;20239;-45
2021/12/10 08:38:31;;;;;;;13.13;7.57;;;3.40;99.90;;;;;;5054957;28;20211;-47
2021/12/10 08:41:04;;;;;;;13.37;7.93;;;3.40;99.90;;;;;;5083256;28;20202;-42
2021/12/10 08:43:31;;;;;;;15.70;8.03;;;3.30;99.90;;;;;;5040321;28;20231;-42
2021/12/10 08:45:59;;;;;;;12.17;7.97;;;3.40;99.90;;;;;;5054838;28;20211;-47
2021/12/10 08:48:28;;;;;;;11.53;7.53;;;3.40;99.90;;;;;;5043790;28;20709;-42
2021/12/10 08:50:57;;;;;;;12.63;8.37;;;3.30;99.90;;;;;;5063384;28;20222;-42
2021/12/10 08:53:24;;;;;;;12.77;7.33;;;3.40;99.90;;;;;;5080463;28;20895;-42
2021/12/10 08:55:55;;;;;;;12.63;7.50;;;3.40;99.90;;;;;;5067582;28;20826;-46
2021/12/10 08:58:24;;;;;;;12.73;8.10;;;3.30;99.90;;;;;;5073107;28;20204;-42
2021/12/10 09:00:55;;;;;;;14.10;8.17;;;3.40;99.90;;;;;;5058155;28;20593;-42
2021/12/10 09:03:23;;;;;;;15.03;8.17;;;3.40;99.90;;;;;;5053844;28;20294;-41
2021/12/10 09:05:50;;;;;;;14.43;8.00;;;3.40;99.90;;;;;;5044713;28;20211;-41
2021/12/10 09:08:17;;;;;;;13.70;7.77;;;3.40;99.90;;;;;;5073741;28;20211;-42
2021/12/10 09:10:45;;;;;;;19.00;8.30;;;3.40;99.90;;;;;;5068278;28;20676;-41
2021/12/10 09:13:15;;;;;;;12.53;8.17;;;3.40;99.90;;;;;;5067540;28;20639;-40
2021/12/10 09:15:47;;;;;;;15.10;8.53;;;3.40;99.90;;;;;;5049837;28;21531;-40
2021/12/10 09:18:14;;;;;;;15.83;9.40;;;3.50;99.90;;;;;;5033100;28;21679;-41
2021/12/10 09:20:44;;;;;;;12.30;8.03;;;3.50;99.90;;;;;;5066265;28;20203;-41
2021/12/10 09:23:14;;;;;;;29.50;8.90;;;3.50;99.90;;;;;;5046887;28;20280;-40
2021/12/10 09:25:42;;;;;;;12.80;8.47;;;3.50;99.90;;;;;;5061229;28;20208;-40
2021/12/10 09:28:10;;;;;;;11.90;8.67;;;3.50;99.90;;;;;;5063608;28;20349;-45
2021/12/10 09:30:38;;;;;;;11.67;8.03;;;3.50;99.90;;;;;;5062786;28;20249;-45
2021/12/10 09:33:07;;;;;;;15.80;9.03;;;3.60;99.90;;;;;;5048311;28;20230;-47
2021/12/10 09:35:35;;;;;;;13.40;8.67;;;3.60;99.90;;;;;;5051213;28;20218;-47
2021/12/10 09:38:04;;;;;;;14.60;8.87;;;3.60;99.90;;;;;;5071630;28;20198;-45
2021/12/10 09:40:34;;;;;;;14.50;8.70;;;3.60;99.90;;;;;;5060453;28;20672;-44
2021/12/10 09:43:02;;;;;;;15.80;9.13;;;3.70;99.90;;;;;;5050462;28;20737;-40
2021/12/10 09:45:37;;;;;;;14.87;8.50;;;3.70;99.90;;;;;;5049618;27;20443;-41
2021/12/10 09:48:08;;;;;;;13.43;8.73;;;3.70;99.90;;;;;;5051245;28;20219;-41
2021/12/10 09:50:38;;;;;;;12.37;8.33;;;3.80;99.90;;;;;;5046390;28;20218;-41
2021/12/10 09:53:06;;;;;;;14.70;8.27;;;3.80;99.90;;;;;;5053396;28;20241;-41
2021/12/10 09:55:34;;;;;;;15.00;9.33;;;3.90;99.90;;;;;;5075922;27;20215;-41
2021/12/10 09:58:01;;;;;;;14.70;9.50;;;3.80;99.90;;;;;;5062780;28;20215;-41
2021/12/10 10:00:32;;;;;;;15.47;8.80;;;3.90;99.90;;;;;;5065901;28;20981;-41
2021/12/10 10:03:00;;;;;;;17.23;9.17;;;3.90;99.90;;;;;;5054092;28;20209;-41
2021/12/10 10:05:31;;;;;;;14.00;9.00;;;3.90;99.90;;;;;;5050594;28;20205;-41
2021/12/10 10:08:05;;;;;;;13.83;9.00;;;3.90;99.90;;;;;;5057160;28;20217;-41
2021/12/10 10:10:33;;;;;;;13.93;8.80;;;3.90;99.90;;;;;;5052445;28;20226;-41
2021/12/10 10:13:01;;;;;;;16.43;9.40;;;3.90;99.90;;;;;;5058428;28;20576;-41
2021/12/10 10:15:31;;;;;;;15.03;9.57;;;3.90;99.90;;;;;;5075060;27;20333;-41
2021/12/10 10:18:01;;;;;;;15.43;8.60;;;3.90;99.90;;;;;;5056171;28;20203;-41
2021/12/10 10:20:34;;;;;;;15.77;8.90;;;3.90;99.90;;;;;;5051137;28;20825;-41
2021/12/10 10:23:01;;;;;;;19.17;9.57;;;3.90;99.90;;;;;;5058421;28;20203;-41
2021/12/10 10:25:31;;;;;;;16.20;9.03;;;3.90;99.90;;;;;;5055824;28;20215;-41
2021/12/10 10:27:58;;;;;;;14.70;8.80;;;4.00;99.90;;;;;;5079729;28;21369;-41
2021/12/10 10:30:30;;;;;;;15.23;9.47;;;4.00;99.90;;;;;;5061011;28;20235;-41
2021/12/10 10:32:59;;;;;;;14.97;9.07;;;4.10;99.90;;;;;;5069970;27;20311;-41
2021/12/10 10:35:29;;;;;;;15.73;9.00;;;4.10;99.90;;;;;;5053619;28;20203;-41
2021/12/10 10:37:59;;;;;;;14.03;8.80;;;4.10;99.90;;;;;;5064967;28;20267;-41
2021/12/10 10:40:30;;;;;;;16.03;8.77;;;4.10;99.90;;;;;;5072590;28;20336;-41
2021/12/10 10:42:58;;;;;;;14.60;8.67;;;4.10;99.90;;;;;;5078555;27;20412;-41
2021/12/10 10:45:27;;;;;;;15.50;9.53;;;4.20;99.90;;;;;;5040596;28;20666;-42
2021/12/10 10:47:56;;;;;;;11.47;7.87;;;4.20;99.90;;;;;;5068598;27;20211;-41
2021/12/10 10:50:26;;;;;;;13.10;8.70;;;4.20;99.90;;;;;;5057187;28;20208;-41
2021/12/10 10:52:55;;;;;;;14.17;8.77;;;4.30;99.90;;;;;;5052939;28;20212;-41
2021/12/10 10:55:27;;;;;;;17.33;8.77;;;4.30;99.90;;;;;;5068748;28;20203;-41
2021/12/10 10:57:59;;;;;;;14.47;9.00;;;4.30;99.90;;;;;;5069185;28;20670;-41
2021/12/10 11:00:32;;;;;;;14.73;8.57;;;4.30;99.90;;;;;;5059867;28;20208;-41
2021/12/10 11:03:04;;;;;;;16.87;8.37;;;4.30;99.90;;;;;;5070703;28;20298;-41
2021/12/10 11:05:34;;;;;;;14.30;8.80;;;4.40;99.90;;;;;;5061399;28;20210;-41
2021/12/10 11:08:03;;;;;;;14.80;7.70;;;4.40;99.90;;;;;;5052710;28;21861;-41
2021/12/10 11:10:34;;;;;;;13.60;8.17;;;4.30;99.90;;;;;;5062067;28;20204;-41
2021/12/10 11:13:17;;;;;;;13.33;8.60;;;4.30;99.90;;;;;;5063439;28;20511;-41
2021/12/10 11:15:57;;;;;;;14.10;7.90;;;4.30;99.90;;;;;;5065500;28;20215;-41
2021/12/10 11:18:24;;;;;;;14.00;8.07;;;4.40;99.90;;;;;;5063604;28;20200;-41
2021/12/10 11:20:51;;;;;;;13.07;7.83;;;4.40;99.90;;;;;;5060427;28;20309;-42
2021/12/10 11:23:25;;;;;;;14.23;8.17;;;4.40;99.90;;;;;;5043293;27;20230;-41
2021/12/10 11:25:55;;;;;;;10.97;7.57;;;4.40;99.90;;;;;;5078709;28;20208;-41
2021/12/10 11:28:26;;;;;;;11.57;8.00;;;4.40;99.90;;;;;;5062003;28;20298;-41
2021/12/10 11:31:03;;;;;;;17.80;8.67;;;4.40;99.90;;;;;;5066746;28;20996;-41
2021/12/10 11:33:31;;;;;;;13.90;7.80;;;4.30;99.90;;;;;;5056393;28;20218;-41
2021/12/10 11:36:01;;;;;;;16.20;7.40;;;4.30;99.90;;;;;;5049406;28;20238;-41
2021/12/10 11:38:31;;;;;;;11.73;7.47;;;4.30;99.90;;;;;;5049882;28;20307;-41
2021/12/10 11:41:02;;;;;;;13.70;7.80;;;4.30;99.90;;;;;;5059214;28;20905;-41
2021/12/10 11:43:52;;;;;;;11.53;7.40;;;4.30;99.90;;;;;;5062244;28;20238;-41
2021/12/10 11:46:46;;;;;;;13.10;7.90;;;4.30;99.90;;;;;;5074544;28;20736;-41
2021/12/10 11:49:22;;;;;;;11.33;6.93;;;4.30;99.90;;;;;;5049720;28;20915;-41
2021/12/10 11:51:56;;;;;;;12.63;8.07;;;4.40;99.90;;;;;;5049524;28;20223;-41
2021/12/10 11:54:29;;;;;;;14.73;7.67;;;4.40;99.90;;;;;;5043988;28;20681;-41
2021/12/10 11:57:00;;;;;;;10.63;7.43;;;4.40;99.90;;;;;;5072225;28;20234;-41
2021/12/10 11:59:29;;;;;;;15.23;8.03;;;4.50;99.90;;;;;;5042343;28;20706;-41
2021/12/10 12:02:00;;;;;;;13.00;8.23;;;4.50;99.90;;;;;;5056223;28;20204;-41
2021/12/10 12:04:31;;;;;;;15.17;7.63;;;4.50;99.90;;;;;;5057798;28;20239;-41
2021/12/10 12:07:25;;;;;;;12.27;7.50;;;4.50;99.90;;;;;;5060503;28;20199;-41
2021/12/10 12:09:56;;;;;;;13.83;7.73;;;4.50;99.90;;;;;;5046972;28;20337;-41
2021/12/10 12:12:27;;;;;;;10.50;6.73;;;4.50;99.90;;;;;;5056693;28;20210;-41
2021/12/10 12:15:03;;;;;;;13.50;8.23;;;4.60;99.90;;;;;;5031886;28;20243;-41
2021/12/10 12:17:33;;;;;;;12.07;7.63;;;4.60;99.90;;;;;;5050682;28;20253;-41
2021/12/10 12:20:00;;;;;;;12.30;7.03;;;4.60;99.90;;;;;;5067212;28;20214;-41
2021/12/10 12:25:27;;;;;;;12.23;6.90;;;4.50;99.90;;;;;;5037377;28;20288;-41
2021/12/10 12:28:07;;;;;;;12.00;6.30;;;4.50;99.90;;;;;;5076704;28;20670;-41
2021/12/10 12:30:48;;;;;;;11.70;7.57;;;4.60;99.90;;;;;;5060974;28;20206;-41
2021/12/10 12:33:16;;;;;;;12.33;7.20;;;4.60;99.90;;;;;;5051658;28;20215;-41
2021/12/10 12:35:42;;;;;;;11.00;6.93;;;4.70;99.90;;;;;;5052348;28;20219;-41
2021/12/10 12:38:16;;;;;;;10.73;7.73;;;4.70;99.90;;;;;;5051700;28;20219;-41
2021/12/10 12:40:47;;;;;;;12.23;7.07;;;4.70;99.90;;;;;;5039641;28;21081;-41
2021/12/10 12:43:16;;;;;;;11.43;7.27;;;4.80;99.90;;;;;;5070095;28;20286;-41
2021/12/10 12:45:43;;;;;;;9.43;6.67;;;4.80;99.90;;;;;;5046208;28;20866;-47
2021/12/10 12:48:14;;;;;;;8.43;6.07;;;4.70;99.90;;;;;;5045078;28;20210;-46
2021/12/10 12:50:44;;;;;;;11.93;7.37;;;4.70;99.90;;;;;;5044545;28;20204;-41
2021/12/10 12:53:15;;;;;;;13.20;6.97;;;4.80;99.90;;;;;;5063842;28;20710;-40
2021/12/10 12:55:48;;;;;;;13.57;7.10;;;4.70;99.90;;;;;;5032531;28;20200;-40
2021/12/10 12:58:24;;;;;;;10.23;6.47;;;4.70;99.90;;;;;;5070345;28;20208;-40
2021/12/10 13:01:02;;;;;;;10.90;7.00;;;4.70;99.90;;;;;;5056991;28;20831;-40
2021/12/10 13:03:35;;;;;;;9.83;5.97;;;4.70;99.90;;;;;;5021942;28;20372;-40
2021/12/10 13:06:10;;;;;;;15.90;6.80;;;4.70;99.90;;;;;;5064792;28;20921;-39
2021/12/10 13:08:41;;;;;;;12.10;6.73;;;4.60;99.90;;;;;;5040647;28;20207;-40
2021/12/10 13:11:14;;;;;;;10.83;6.30;;;4.60;99.90;;;;;;5050046;28;20210;-39